LEK weather

Tata Airport
Labé, Labé Region, Guinea

Public forecast

Using degrees Celsius for public forecast. Weather courtesy of forecast.io.

Current aviation weather report (METAR) for Tata Airport

Report is more than 6 hours old.

Retrieved 2020/07/27 12:00 UTC (9 days ago):

GULB 271200Z 27004KT 9999 BKN020 25/20 Q1011 NOSIG

Closest aviation forecast (TAF) to Tata Airport

Closest forecast is Conakry International Airport, 131.0 nm (242.5 km) SW. Retrieved 2020-08-05 00:00 UTC (4 hours ago):

TAF GUCY 042300Z 0500/0606 26006KT 9999 SCT015 BKN110 PROB30 TEMPO 0503/0509 18012KT 8000 -TSRA BKN013 FEW023CB BKN100 TEMPO 0512/0518 12014KT 7000 -TSRA BKN013 FEW023CB OVC100